createdAt,value
2022-08-25T00:00:13.506Z,53.03
2022-08-25T00:02:06.459Z,53.41
2022-08-25T00:03:39.593Z,54.01
2022-08-25T00:05:13.811Z,54.11
2022-08-25T00:06:47.584Z,52.61
2022-08-25T00:08:19.269Z,51.08
2022-08-25T00:09:51.215Z,49.88
2022-08-25T00:11:24.000Z,49.80
2022-08-25T00:12:55.743Z,49.52
2022-08-25T00:14:30.655Z,47.48
2022-08-25T00:16:02.537Z,47.88
2022-08-25T00:17:34.320Z,47.27
2022-08-25T00:19:07.903Z,47.39
2022-08-25T00:20:39.690Z,47.26
2022-08-25T00:22:15.128Z,46.17
2022-08-25T00:23:46.893Z,46.64
2022-08-25T00:25:18.920Z,46.75
2022-08-25T00:26:51.746Z,46.12
2022-08-25T00:28:23.888Z,46.67
2022-08-25T00:29:55.644Z,45.79
2022-08-25T00:31:38.464Z,46.16
2022-08-25T00:33:11.373Z,46.15
2022-08-25T00:34:43.158Z,45.88
2022-08-25T00:36:15.867Z,45.35
2022-08-25T00:37:47.618Z,45.81
2022-08-25T00:39:21.253Z,45.80
2022-08-25T00:41:06.134Z,45.44
2022-08-25T00:42:38.613Z,45.29
2022-08-25T00:44:11.579Z,45.13
2022-08-25T00:45:43.347Z,45.32
2022-08-25T00:47:15.085Z,45.81
2022-08-25T00:48:48.080Z,45.67
2022-08-25T00:50:20.009Z,45.29
2022-08-25T00:51:54.247Z,45.18
2022-08-25T00:53:25.949Z,45.20
2022-08-25T00:55:07.867Z,45.09
2022-08-25T00:56:39.926Z,45.50
2022-08-25T00:58:14.661Z,45.01
2022-08-25T00:59:46.492Z,45.53
2022-08-25T01:01:18.481Z,45.00
2022-08-25T01:02:50.821Z,45.72
2022-08-25T01:04:22.774Z,45.26
2022-08-25T01:05:54.905Z,45.04
2022-08-25T01:07:26.733Z,45.31
2022-08-25T01:08:58.814Z,45.68
2022-08-25T01:10:30.722Z,45.06
2022-08-25T01:12:02.624Z,44.69
2022-08-25T01:13:37.314Z,45.48
2022-08-25T01:15:10.142Z,45.60
2022-08-25T01:16:43.897Z,45.58
2022-08-25T01:18:15.734Z,45.07
2022-08-25T01:19:47.748Z,45.70
2022-08-25T01:21:20.304Z,45.27
2022-08-25T01:22:55.039Z,45.79
2022-08-25T01:24:31.645Z,45.90
2022-08-25T01:26:13.400Z,45.06
2022-08-25T01:27:45.210Z,45.57
2022-08-25T01:29:22.802Z,45.77
2022-08-25T01:30:54.662Z,45.38
2022-08-25T01:32:27.790Z,45.36
2022-08-25T01:33:59.737Z,45.23
2022-08-25T01:35:31.572Z,45.52
2022-08-25T01:37:03.769Z,45.47
2022-08-25T01:38:35.518Z,45.50
2022-08-25T01:40:07.630Z,45.25
2022-08-25T01:41:51.324Z,45.80
2022-08-25T01:43:30.931Z,45.57
2022-08-25T01:45:02.748Z,45.35
2022-08-25T01:46:34.949Z,45.97
2022-08-25T01:48:07.484Z,45.77
2022-08-25T01:49:39.303Z,46.01
2022-08-25T01:51:11.029Z,45.89
2022-08-25T01:52:55.760Z,45.00
2022-08-25T01:54:27.543Z,45.30
2022-08-25T01:56:02.742Z,45.74
2022-08-25T01:57:35.673Z,46.12
2022-08-25T01:59:07.382Z,45.80
2022-08-25T02:00:39.112Z,45.75
2022-08-25T02:02:10.966Z,46.24
2022-08-25T02:03:43.770Z,46.25
2022-08-25T02:05:18.491Z,45.88
2022-08-25T02:06:54.681Z,46.43
2022-08-25T02:08:26.463Z,46.46
2022-08-25T02:09:58.777Z,46.35
2022-08-25T02:11:35.994Z,46.44
2022-08-25T02:13:08.659Z,45.44
2022-08-25T02:14:40.840Z,46.14
2022-08-25T02:16:15.638Z,45.95
2022-08-25T02:17:47.331Z,45.90
2022-08-25T02:19:19.656Z,45.72
2022-08-25T02:20:51.465Z,45.70
2022-08-25T02:22:23.663Z,45.62
2022-08-25T02:23:55.526Z,45.97
2022-08-25T02:25:27.305Z,44.96
2022-08-25T02:26:59.581Z,45.59
2022-08-25T02:28:31.316Z,45.62
2022-08-25T02:30:04.481Z,45.77
2022-08-25T02:31:36.357Z,45.78
2022-08-25T02:33:08.927Z,45.17
2022-08-25T02:34:41.698Z,45.89
2022-08-25T02:36:14.468Z,45.35
2022-08-25T02:37:46.205Z,44.84
2022-08-25T02:39:17.965Z,45.39
2022-08-25T02:40:50.715Z,45.59
2022-08-25T02:42:22.606Z,45.42
2022-08-25T02:43:55.362Z,45.41
2022-08-25T02:45:27.213Z,45.69
2022-08-25T02:46:59.152Z,45.71
2022-08-25T02:48:31.127Z,45.40
2022-08-25T02:50:04.589Z,45.77
2022-08-25T02:51:36.758Z,45.48
2022-08-25T02:53:08.506Z,45.30
2022-08-25T02:54:40.417Z,45.77
2022-08-25T02:56:12.148Z,46.04
2022-08-25T02:57:44.010Z,45.50
2022-08-25T02:59:15.799Z,45.48
2022-08-25T03:00:51.426Z,45.65
2022-08-25T03:02:23.269Z,45.74
2022-08-25T03:03:55.089Z,45.49
2022-08-25T03:05:27.029Z,46.43
2022-08-25T03:06:59.294Z,45.98
2022-08-25T03:08:31.033Z,46.39
2022-08-25T03:10:13.598Z,46.19
2022-08-25T03:11:46.131Z,46.46
2022-08-25T03:13:18.138Z,45.77
2022-08-25T03:14:49.895Z,46.05
2022-08-25T03:16:22.176Z,45.91
2022-08-25T03:17:54.636Z,46.92
2022-08-25T03:19:26.774Z,47.52
2022-08-25T03:20:58.624Z,47.01
2022-08-25T03:22:30.391Z,46.36
2022-08-25T03:24:02.150Z,46.51
2022-08-25T03:26:06.086Z,46.75
2022-08-25T03:27:37.841Z,47.08
2022-08-25T03:29:10.565Z,45.95
2022-08-25T03:30:42.519Z,46.70
2022-08-25T03:32:14.204Z,46.42
2022-08-25T03:33:46.393Z,46.75
2022-08-25T03:35:18.208Z,47.00
2022-08-25T03:36:51.911Z,46.80
2022-08-25T03:38:24.068Z,46.73
2022-08-25T03:39:55.823Z,46.38
2022-08-25T03:41:34.909Z,47.04
2022-08-25T03:43:06.659Z,46.77
2022-08-25T03:44:38.320Z,46.29
2022-08-25T03:46:10.562Z,46.63
2022-08-25T03:47:42.589Z,46.44
2022-08-25T03:49:18.647Z,46.47
2022-08-25T03:50:51.702Z,46.89
2022-08-25T03:52:23.874Z,46.58
2022-08-25T03:53:55.782Z,47.41
2022-08-25T03:55:34.083Z,46.76
2022-08-25T03:57:06.548Z,46.35
2022-08-25T03:58:38.448Z,46.51
2022-08-25T04:00:10.534Z,46.68
2022-08-25T04:01:45.906Z,46.53
2022-08-25T04:03:18.032Z,47.04
2022-08-25T04:04:50.535Z,47.05
2022-08-25T04:06:22.601Z,47.23
2022-08-25T04:07:54.397Z,46.94
2022-08-25T04:09:26.315Z,47.70
2022-08-25T04:10:58.391Z,47.29
2022-08-25T04:12:30.135Z,46.91
2022-08-25T04:14:03.435Z,47.84
2022-08-25T04:15:35.279Z,47.49
2022-08-25T04:17:06.965Z,47.67
2022-08-25T04:18:39.187Z,48.19
2022-08-25T04:20:14.050Z,48.08
2022-08-25T04:21:46.254Z,47.93
2022-08-25T04:23:18.098Z,47.93
2022-08-25T04:24:50.014Z,48.26
2022-08-25T04:26:26.086Z,48.40
2022-08-25T04:27:57.976Z,48.37
2022-08-25T04:29:29.763Z,47.96
2022-08-25T04:31:01.579Z,48.52
2022-08-25T04:32:33.515Z,48.77
2022-08-25T04:34:14.800Z,48.55
2022-08-25T04:35:57.217Z,48.54
2022-08-25T04:37:28.968Z,48.52
2022-08-25T04:39:00.739Z,48.38
2022-08-25T04:40:32.706Z,48.54
2022-08-25T04:42:04.628Z,48.30
2022-08-25T04:43:38.637Z,48.80
2022-08-25T04:45:10.444Z,48.61
2022-08-25T04:46:42.276Z,48.66
2022-08-25T04:48:14.085Z,48.52
2022-08-25T04:49:45.878Z,49.16
2022-08-25T04:51:19.198Z,49.36
2022-08-25T04:52:50.978Z,48.92
2022-08-25T04:54:23.277Z,49.06
2022-08-25T04:55:55.014Z,49.21
2022-08-25T04:57:26.808Z,48.94
2022-08-25T04:59:01.577Z,48.95
2022-08-25T05:00:34.534Z,48.96
2022-08-25T05:02:06.836Z,49.42
2022-08-25T05:03:38.646Z,49.73
2022-08-25T05:05:10.445Z,49.66
2022-08-25T05:06:42.941Z,50.01
2022-08-25T05:08:16.807Z,49.70
2022-08-25T05:09:48.504Z,49.53
2022-08-25T05:11:23.552Z,49.50
2022-08-25T05:12:55.657Z,49.93
2022-08-25T05:14:27.521Z,49.89
2022-08-25T05:16:00.471Z,50.40
2022-08-25T05:17:32.979Z,50.19
2022-08-25T05:19:05.027Z,50.75
2022-08-25T05:20:37.788Z,50.38
2022-08-25T05:22:10.459Z,49.61
2022-08-25T05:23:42.361Z,49.78
2022-08-25T05:25:14.874Z,50.58
2022-08-25T05:26:46.703Z,50.46
2022-08-25T05:28:19.695Z,49.75
2022-08-25T05:29:51.469Z,49.92
2022-08-25T05:31:23.967Z,50.17
2022-08-25T05:32:55.910Z,50.11
2022-08-25T05:34:30.306Z,50.13
2022-08-25T05:36:02.474Z,51.17
2022-08-25T05:37:34.376Z,50.35
2022-08-25T05:39:06.271Z,50.50
2022-08-25T05:40:38.198Z,50.22
2022-08-25T05:42:09.980Z,50.03
2022-08-25T05:43:42.007Z,50.99
2022-08-25T05:45:20.291Z,50.77
2022-08-25T05:46:52.645Z,51.43
2022-08-25T05:48:24.937Z,50.42
2022-08-25T05:49:56.814Z,50.58
2022-08-25T05:51:30.967Z,51.39
2022-08-25T05:53:02.912Z,51.46
2022-08-25T05:54:34.715Z,51.16
2022-08-25T05:56:06.690Z,51.59
2022-08-25T05:57:38.511Z,50.99
2022-08-25T05:59:12.177Z,51.39
2022-08-25T06:00:44.002Z,51.88
2022-08-25T06:02:34.449Z,51.15
2022-08-25T06:04:06.648Z,51.66
2022-08-25T06:05:38.576Z,51.58
2022-08-25T06:07:10.460Z,51.49
2022-08-25T06:08:42.988Z,51.18
2022-08-25T06:10:15.111Z,51.28
2022-08-25T06:11:49.705Z,51.86
2022-08-25T06:13:28.862Z,51.33
2022-08-25T06:15:00.849Z,51.87
2022-08-25T06:16:33.140Z,51.58
2022-08-25T06:18:05.385Z,51.97
2022-08-25T06:19:37.197Z,51.66
2022-08-25T06:21:13.530Z,51.19
2022-08-25T06:22:45.390Z,51.49
2022-08-25T06:24:17.242Z,51.57
2022-08-25T06:25:49.747Z,51.84
2022-08-25T06:27:22.151Z,51.09
2022-08-25T06:28:54.080Z,51.20
2022-08-25T06:30:28.632Z,51.89
2022-08-25T06:32:01.102Z,51.18
2022-08-25T06:33:33.016Z,51.67
2022-08-25T06:35:05.235Z,51.68
2022-08-25T06:36:37.068Z,51.97
2022-08-25T06:38:08.837Z,51.73
2022-08-25T06:39:40.679Z,51.33
2022-08-25T06:41:12.833Z,51.54
2022-08-25T06:42:48.459Z,51.29
2022-08-25T06:44:21.295Z,50.82
2022-08-25T06:45:53.072Z,50.99
2022-08-25T06:47:25.056Z,52.01
2022-08-25T06:48:57.689Z,51.16
2022-08-25T06:50:29.617Z,50.90
2022-08-25T06:52:01.333Z,51.10
2022-08-25T06:53:33.121Z,51.22
2022-08-25T06:55:06.876Z,51.32
2022-08-25T06:56:40.073Z,51.33
2022-08-25T06:58:12.119Z,51.37
2022-08-25T06:59:43.889Z,51.42
2022-08-25T07:01:20.017Z,50.62
2022-08-25T07:02:52.227Z,51.22
2022-08-25T07:04:25.365Z,50.56
2022-08-25T07:05:57.907Z,50.31
2022-08-25T07:07:43.053Z,50.31
2022-08-25T07:09:16.061Z,50.88
2022-08-25T07:10:48.195Z,50.00
2022-08-25T07:12:20.831Z,49.79
2022-08-25T07:13:52.756Z,49.35
2022-08-25T07:15:24.578Z,49.95
2022-08-25T07:16:56.344Z,50.05
2022-08-25T07:18:28.448Z,49.33
2022-08-25T07:20:00.332Z,49.35
2022-08-25T07:21:35.679Z,49.37
2022-08-25T07:23:07.827Z,48.54
2022-08-25T07:24:39.585Z,48.50
2022-08-25T07:26:27.166Z,48.16
2022-08-25T07:28:04.271Z,48.24
2022-08-25T07:29:42.298Z,48.40
2022-08-25T07:31:14.634Z,47.61
2022-08-25T07:32:46.455Z,47.42
2022-08-25T07:34:45.511Z,47.62
2022-08-25T07:36:24.396Z,46.77
2022-08-25T07:37:59.008Z,46.53
2022-08-25T07:39:31.407Z,47.74
2022-08-25T07:41:04.035Z,46.97
2022-08-25T07:42:36.185Z,46.64
2022-08-25T07:44:10.653Z,46.77
2022-08-25T07:45:49.091Z,45.78
2022-08-25T07:47:21.624Z,45.54
2022-08-25T07:48:54.890Z,46.25
2022-08-25T07:50:26.928Z,46.26
2022-08-25T07:52:05.707Z,45.46
2022-08-25T07:53:38.462Z,46.18
2022-08-25T07:55:11.189Z,45.74
2022-08-25T07:56:43.910Z,44.73
2022-08-25T07:58:16.071Z,44.73
2022-08-25T07:59:48.156Z,45.00
2022-08-25T08:01:23.794Z,44.70
2022-08-25T08:02:56.569Z,45.11
2022-08-25T08:04:28.440Z,44.18
2022-08-25T08:06:01.111Z,43.73
2022-08-25T08:07:43.047Z,43.25
2022-08-25T08:09:16.396Z,43.80
2022-08-25T08:11:03.161Z,44.13
2022-08-25T08:12:36.420Z,43.13
2022-08-25T08:14:08.581Z,42.68
2022-08-25T08:15:42.246Z,43.00
2022-08-25T08:17:14.193Z,42.59
2022-08-25T08:18:48.131Z,42.77
2022-08-25T08:20:23.281Z,42.75
2022-08-25T08:21:55.449Z,42.28
2022-08-25T08:23:30.057Z,42.20
2022-08-25T08:25:02.052Z,41.74
2022-08-25T08:26:48.548Z,41.77
2022-08-25T08:28:27.964Z,41.68
2022-08-25T08:29:59.714Z,41.62
2022-08-25T08:31:31.443Z,42.21
2022-08-25T08:33:10.093Z,42.68
2022-08-25T08:34:43.425Z,42.11
2022-08-25T08:36:16.179Z,41.49
2022-08-25T08:37:48.235Z,41.49
2022-08-25T08:39:24.657Z,41.46
2022-08-25T08:41:22.925Z,41.05
2022-08-25T08:43:17.930Z,39.93
2022-08-25T08:45:02.005Z,39.64
2022-08-25T08:46:41.360Z,39.40
2022-08-25T08:48:13.137Z,39.23
2022-08-25T08:50:04.033Z,40.54
2022-08-25T08:51:38.676Z,38.73
2022-08-25T08:53:11.637Z,39.03
2022-08-25T08:54:43.340Z,38.66
2022-08-25T08:56:17.738Z,39.09
2022-08-25T08:57:51.938Z,38.79
2022-08-25T08:59:30.259Z,38.37
2022-08-25T09:01:03.200Z,38.33
2022-08-25T09:02:52.562Z,38.29
2022-08-25T09:04:33.670Z,37.99
2022-08-25T09:06:31.693Z,38.57
2022-08-25T09:08:06.114Z,38.12
2022-08-25T09:09:37.967Z,38.85
2022-08-25T09:11:16.136Z,40.34
2022-08-25T09:12:55.407Z,36.93
2022-08-25T09:14:42.424Z,36.91
2022-08-25T09:16:38.690Z,36.23
2022-08-25T09:18:17.357Z,36.37
2022-08-25T09:19:55.316Z,36.58
2022-08-25T09:21:30.408Z,37.29
2022-08-25T09:23:08.190Z,36.11
2022-08-25T09:24:45.908Z,36.37
2022-08-25T09:26:21.192Z,36.44
2022-08-25T09:27:59.728Z,36.25
2022-08-25T09:29:51.805Z,36.82
2022-08-25T09:31:29.789Z,37.32
2022-08-25T09:33:05.136Z,36.40
2022-08-25T09:34:37.438Z,34.88
2022-08-25T09:36:09.281Z,35.15
2022-08-25T09:37:41.375Z,34.65
2022-08-25T09:39:13.642Z,35.46
2022-08-25T09:40:47.478Z,33.97
2022-08-25T09:42:23.897Z,34.68
2022-08-25T09:43:55.901Z,33.66
2022-08-25T09:45:32.213Z,33.39
2022-08-25T09:47:03.926Z,33.87
2022-08-25T09:48:46.600Z,33.62
2022-08-25T09:50:20.345Z,34.80
2022-08-25T09:51:52.736Z,32.48
2022-08-25T09:53:24.954Z,32.92
2022-08-25T09:54:57.513Z,32.43
2022-08-25T09:56:31.954Z,32.21
2022-08-25T09:58:09.557Z,32.70
2022-08-25T09:59:41.450Z,32.06
2022-08-25T10:01:29.581Z,32.62
2022-08-25T10:03:12.682Z,32.99
2022-08-25T10:04:44.432Z,33.33
2022-08-25T10:06:18.649Z,31.79
2022-08-25T10:07:59.346Z,32.71
2022-08-25T10:09:54.479Z,30.87
2022-08-25T10:11:34.061Z,31.56
2022-08-25T10:13:12.846Z,31.71
2022-08-25T10:14:44.980Z,31.52
2022-08-25T10:16:36.458Z,31.60
2022-08-25T10:18:20.741Z,31.75
2022-08-25T10:19:53.291Z,31.45
2022-08-25T10:21:25.053Z,31.54
2022-08-25T10:23:10.358Z,31.42
2022-08-25T10:24:43.873Z,30.81
2022-08-25T10:26:34.835Z,31.71
2022-08-25T10:28:07.586Z,32.09
2022-08-25T10:29:40.842Z,30.37
2022-08-25T10:31:18.847Z,29.96
2022-08-25T10:33:02.595Z,30.16
2022-08-25T10:34:44.461Z,30.32
2022-08-25T10:36:23.848Z,30.29
2022-08-25T10:37:58.714Z,29.63
2022-08-25T10:39:41.560Z,29.46
2022-08-25T10:41:16.803Z,30.10
2022-08-25T10:43:02.439Z,29.35
2022-08-25T10:45:02.487Z,29.08
2022-08-25T10:46:39.104Z,29.09
2022-08-25T10:48:17.355Z,31.07
2022-08-25T10:49:50.448Z,30.68
2022-08-25T10:51:41.151Z,29.69
2022-08-25T10:53:13.503Z,30.47
2022-08-25T10:54:59.330Z,28.34
2022-08-25T10:56:36.948Z,29.09
2022-08-25T10:58:16.418Z,30.29
2022-08-25T10:59:48.302Z,30.05
2022-08-25T11:01:20.035Z,29.90
2022-08-25T11:03:06.870Z,28.64
2022-08-25T11:04:42.147Z,28.17
2022-08-25T11:06:18.984Z,28.67
2022-08-25T11:07:54.049Z,27.47
2022-08-25T11:09:28.452Z,27.59
2022-08-25T11:11:02.527Z,28.58
2022-08-25T11:12:38.733Z,28.57
2022-08-25T11:14:19.076Z,28.39
2022-08-25T11:16:13.649Z,28.46
2022-08-25T11:18:00.248Z,28.85
2022-08-25T11:19:38.440Z,28.67
2022-08-25T11:21:11.824Z,29.76
2022-08-25T11:22:50.920Z,28.69
2022-08-25T11:24:36.134Z,27.18
2022-08-25T11:26:13.310Z,27.00
2022-08-25T11:28:03.537Z,27.22
2022-08-25T11:29:36.983Z,27.69
2022-08-25T11:31:11.350Z,27.28
2022-08-25T11:32:44.792Z,26.57
2022-08-25T11:34:19.538Z,27.09
2022-08-25T11:35:59.724Z,25.64
2022-08-25T11:37:32.422Z,25.93
2022-08-25T11:39:23.144Z,25.87
2022-08-25T11:40:59.650Z,26.00
2022-08-25T11:42:38.276Z,24.99
2022-08-25T11:44:17.082Z,24.87
2022-08-25T11:45:55.103Z,24.29
2022-08-25T11:47:45.445Z,26.20
2022-08-25T11:49:23.546Z,26.56
2022-08-25T11:50:58.399Z,25.43
2022-08-25T11:52:32.919Z,26.19
2022-08-25T11:54:12.579Z,27.11
2022-08-25T11:55:46.567Z,25.63
2022-08-25T11:57:20.171Z,26.05
2022-08-25T11:58:52.315Z,25.90
2022-08-25T12:00:39.412Z,25.97
2022-08-25T12:02:28.296Z,26.71
2022-08-25T12:04:19.015Z,26.86
2022-08-25T12:05:52.503Z,24.83
2022-08-25T12:07:25.511Z,25.28
2022-08-25T12:09:00.043Z,26.10
2022-08-25T12:10:52.230Z,26.29
2022-08-25T12:12:30.166Z,25.09
2022-08-25T12:14:18.296Z,25.25
2022-08-25T12:15:50.083Z,25.22
2022-08-25T12:17:25.791Z,26.29
2022-08-25T12:19:17.516Z,27.24
2022-08-25T12:20:55.301Z,25.68
2022-08-25T12:22:32.556Z,25.94
2022-08-25T12:24:07.902Z,23.61
2022-08-25T12:25:39.901Z,23.93
2022-08-25T12:27:34.310Z,24.65
2022-08-25T12:29:15.111Z,25.44
2022-08-25T12:30:50.603Z,26.32
2022-08-25T12:32:40.779Z,26.89
2022-08-25T12:34:26.850Z,25.93
2022-08-25T12:35:59.212Z,26.23
2022-08-25T12:37:31.379Z,25.72
2022-08-25T12:39:17.875Z,25.62
2022-08-25T12:40:50.153Z,26.28
2022-08-25T12:42:26.416Z,26.40
2022-08-25T12:44:17.314Z,24.62
2022-08-25T12:45:53.122Z,23.81
2022-08-25T12:47:27.364Z,23.41
2022-08-25T12:49:21.003Z,22.35
2022-08-25T12:51:15.778Z,23.41
2022-08-25T12:52:47.628Z,24.54
2022-08-25T12:54:24.694Z,23.88
2022-08-25T12:56:08.845Z,23.99
2022-08-25T12:57:46.248Z,21.17
2022-08-25T12:59:19.618Z,21.61
2022-08-25T13:00:57.978Z,21.74
2022-08-25T13:02:37.650Z,22.26
2022-08-25T13:04:13.768Z,22.47
2022-08-25T13:06:02.196Z,21.91
2022-08-25T13:07:42.815Z,22.21
2022-08-25T13:09:14.673Z,22.98
2022-08-25T13:10:46.352Z,21.54
2022-08-25T13:12:20.228Z,21.57
2022-08-25T13:13:55.437Z,22.54
2022-08-25T13:15:38.477Z,22.53
2022-08-25T13:17:10.526Z,23.34
2022-08-25T13:18:42.443Z,23.00
2022-08-25T13:20:24.114Z,22.33
2022-08-25T13:21:56.272Z,22.85
2022-08-25T13:23:29.255Z,22.08
2022-08-25T13:25:01.198Z,22.22
2022-08-25T13:26:48.219Z,22.35
2022-08-25T13:28:21.873Z,21.98
2022-08-25T13:29:55.223Z,22.29
2022-08-25T13:31:30.251Z,24.53
2022-08-25T13:33:20.521Z,25.34
2022-08-25T13:34:54.447Z,24.99
2022-08-25T13:36:52.078Z,25.59
2022-08-25T13:38:28.438Z,24.87
2022-08-25T13:40:07.460Z,24.06
2022-08-25T13:41:49.777Z,23.48
2022-08-25T13:43:27.806Z,23.22
2022-08-25T13:44:59.588Z,21.99
2022-08-25T13:46:32.450Z,23.12
2022-08-25T13:48:07.884Z,22.72
2022-08-25T13:49:56.610Z,20.69
2022-08-25T13:51:31.105Z,21.17
2022-08-25T13:53:23.029Z,21.84
2022-08-25T13:55:00.980Z,21.38
2022-08-25T13:56:41.473Z,22.50
2022-08-25T13:58:15.216Z,22.69
2022-08-25T13:59:58.539Z,23.08
2022-08-25T14:01:48.499Z,22.96
2022-08-25T14:03:39.266Z,23.12
2022-08-25T14:05:29.815Z,22.17
2022-08-25T14:07:20.403Z,22.42
2022-08-25T14:08:54.790Z,21.99
2022-08-25T14:10:35.452Z,20.54
2022-08-25T14:12:10.358Z,21.02
2022-08-25T14:13:45.486Z,20.78
2022-08-25T14:15:17.290Z,20.55
2022-08-25T14:16:50.534Z,21.84
2022-08-25T14:18:28.284Z,20.58
2022-08-25T14:20:00.208Z,21.19
2022-08-25T14:21:33.153Z,21.11
2022-08-25T14:23:07.876Z,21.92
2022-08-25T14:24:42.179Z,22.72
2022-08-25T14:26:14.726Z,23.13
2022-08-25T14:28:06.385Z,22.49
2022-08-25T14:29:41.212Z,22.65
2022-08-25T14:31:15.059Z,20.87
2022-08-25T14:32:46.804Z,20.62
2022-08-25T14:34:26.458Z,21.39
2022-08-25T14:36:02.644Z,21.54
2022-08-25T14:37:34.767Z,22.21
2022-08-25T14:39:08.881Z,22.95
2022-08-25T14:40:41.000Z,22.22
2022-08-25T14:42:13.357Z,23.18
2022-08-25T14:43:45.457Z,23.75
2022-08-25T14:45:17.752Z,23.99
2022-08-25T14:46:50.735Z,23.89
2022-08-25T14:48:27.248Z,23.29
2022-08-25T14:49:59.111Z,21.94
2022-08-25T14:51:32.693Z,20.88
2022-08-25T14:53:04.557Z,21.90
2022-08-25T14:54:37.667Z,23.34
2022-08-25T14:56:10.435Z,23.46
2022-08-25T14:57:42.392Z,23.35
2022-08-25T14:59:14.368Z,22.75
2022-08-25T15:00:46.411Z,22.55
2022-08-25T15:02:20.323Z,21.80
2022-08-25T15:03:53.002Z,23.37
2022-08-25T15:05:28.309Z,24.53
2022-08-25T15:07:01.345Z,23.82
2022-08-25T15:08:53.259Z,22.62
2022-08-25T15:10:25.933Z,21.61
2022-08-25T15:11:58.207Z,22.71
2022-08-25T15:13:29.972Z,21.39
2022-08-25T15:15:02.905Z,21.80
2022-08-25T15:16:35.500Z,23.05
2022-08-25T15:18:07.473Z,21.75
2022-08-25T15:19:39.344Z,22.09
2022-08-25T15:21:11.043Z,22.32
2022-08-25T15:22:42.878Z,22.06
2022-08-25T15:24:17.346Z,22.84
2022-08-25T15:25:52.658Z,22.62
2022-08-25T15:27:24.790Z,22.40
2022-08-25T15:29:02.777Z,22.71
2022-08-25T15:30:35.221Z,22.77
2022-08-25T15:32:07.363Z,24.52
2022-08-25T15:33:39.413Z,23.13
2022-08-25T15:35:11.173Z,21.78
2022-08-25T15:36:47.257Z,21.61
2022-08-25T15:38:20.734Z,22.18
2022-08-25T15:39:52.586Z,21.75
2022-08-25T15:41:27.749Z,23.49
2022-08-25T15:42:59.740Z,22.15
2022-08-25T15:44:31.774Z,21.12
2022-08-25T15:46:04.089Z,22.85
2022-08-25T15:47:36.085Z,23.44
2022-08-25T15:49:08.117Z,22.15
2022-08-25T15:50:40.167Z,22.67
2022-08-25T15:52:13.795Z,23.18
2022-08-25T15:53:48.004Z,22.73
2022-08-25T15:55:20.126Z,22.78
2022-08-25T15:56:52.054Z,21.70
2022-08-25T15:58:24.477Z,22.73
2022-08-25T15:59:56.734Z,23.70
2022-08-25T16:01:30.492Z,24.15
2022-08-25T16:03:03.099Z,22.95
2022-08-25T16:04:36.351Z,23.66
2022-08-25T16:06:08.530Z,23.60
2022-08-25T16:07:40.362Z,24.69
2022-08-25T16:09:12.140Z,24.19
2022-08-25T16:10:44.004Z,22.30
2022-08-25T16:12:15.800Z,22.73
2022-08-25T16:13:48.701Z,22.18
2022-08-25T16:15:24.027Z,22.17
2022-08-25T16:17:00.689Z,21.37
2022-08-25T16:18:32.481Z,21.25
2022-08-25T16:20:05.240Z,22.69
2022-08-25T16:21:42.196Z,23.68
2022-08-25T16:23:19.627Z,23.94
2022-08-25T16:24:51.713Z,24.63
2022-08-25T16:26:24.135Z,24.32
2022-08-25T16:27:56.379Z,24.59
2022-08-25T16:29:29.311Z,24.05
2022-08-25T16:31:10.966Z,24.00
2022-08-25T16:32:42.759Z,22.32
2022-08-25T16:34:15.259Z,22.05
2022-08-25T16:35:47.614Z,22.71
2022-08-25T16:37:21.572Z,22.56
2022-08-25T16:38:55.237Z,22.92
2022-08-25T16:40:27.277Z,22.22
2022-08-25T16:41:59.113Z,23.74
2022-08-25T16:43:30.887Z,23.82
2022-08-25T16:45:03.115Z,24.09
2022-08-25T16:46:37.546Z,22.96
2022-08-25T16:48:09.495Z,23.44
2022-08-25T16:49:41.577Z,22.68
2022-08-25T16:51:15.182Z,22.70
2022-08-25T16:53:07.940Z,21.66
2022-08-25T16:54:58.849Z,23.38
2022-08-25T16:56:30.903Z,24.23
2022-08-25T16:58:05.430Z,23.63
2022-08-25T16:59:37.562Z,24.50
2022-08-25T17:01:11.592Z,25.44
2022-08-25T17:02:43.536Z,24.55
2022-08-25T17:04:17.063Z,24.84
2022-08-25T17:05:49.720Z,25.19
2022-08-25T17:07:23.648Z,24.23
2022-08-25T17:08:56.224Z,24.36
2022-08-25T17:10:28.716Z,24.91
2022-08-25T17:12:00.556Z,25.40
2022-08-25T17:13:32.372Z,25.56
2022-08-25T17:15:06.146Z,26.10
2022-08-25T17:16:38.174Z,26.18
2022-08-25T17:18:11.079Z,26.28
2022-08-25T17:19:46.060Z,25.88
2022-08-25T17:21:24.367Z,26.07
2022-08-25T17:22:56.493Z,25.91
2022-08-25T17:24:29.441Z,26.16
2022-08-25T17:26:04.291Z,26.91
2022-08-25T17:27:36.758Z,26.83
2022-08-25T17:29:09.018Z,25.82
2022-08-25T17:30:41.742Z,27.05
2022-08-25T17:32:13.630Z,26.95
2022-08-25T17:33:46.165Z,27.49
2022-08-25T17:35:20.857Z,26.76
2022-08-25T17:36:54.698Z,26.50
2022-08-25T17:38:27.438Z,27.55
2022-08-25T17:40:03.011Z,27.12
2022-08-25T17:41:37.621Z,26.51
2022-08-25T17:43:10.230Z,28.01
2022-08-25T17:44:42.204Z,27.86
2022-08-25T17:46:14.099Z,27.80
2022-08-25T17:47:46.374Z,27.51
2022-08-25T17:49:18.358Z,27.83
2022-08-25T17:50:50.267Z,28.27
2022-08-25T17:52:25.418Z,26.75
2022-08-25T17:53:57.409Z,27.51
2022-08-25T17:55:29.748Z,27.47
2022-08-25T17:57:01.716Z,28.79
2022-08-25T17:58:33.668Z,27.82
2022-08-25T18:00:10.846Z,28.92
2022-08-25T18:01:45.465Z,28.53
2022-08-25T18:03:17.337Z,29.17
2022-08-25T18:04:49.040Z,29.16
2022-08-25T18:06:21.267Z,28.76
2022-08-25T18:07:54.085Z,29.45
2022-08-25T18:09:25.857Z,28.71
2022-08-25T18:10:58.136Z,28.87
2022-08-25T18:12:30.017Z,29.87
2022-08-25T18:14:01.938Z,29.24
2022-08-25T18:15:34.123Z,30.10
2022-08-25T18:17:06.181Z,29.34
2022-08-25T18:18:38.641Z,30.31
2022-08-25T18:20:11.754Z,30.33
2022-08-25T18:21:43.697Z,30.41
2022-08-25T18:23:15.728Z,30.01
2022-08-25T18:24:48.203Z,30.87
2022-08-25T18:26:21.951Z,30.74
2022-08-25T18:27:57.495Z,30.84
2022-08-25T18:29:30.097Z,30.95
2022-08-25T18:31:01.902Z,31.20
2022-08-25T18:32:33.793Z,30.59
2022-08-25T18:34:09.529Z,30.86
2022-08-25T18:35:42.071Z,31.14
2022-08-25T18:37:32.575Z,31.39
2022-08-25T18:39:23.599Z,31.86
2022-08-25T18:40:58.971Z,31.56
2022-08-25T18:42:30.779Z,31.98
2022-08-25T18:44:02.789Z,31.47
2022-08-25T18:45:49.592Z,31.51
2022-08-25T18:47:23.896Z,31.69
2022-08-25T18:48:55.862Z,31.75
2022-08-25T18:50:31.976Z,31.80
2022-08-25T18:52:03.865Z,31.78
2022-08-25T18:53:37.377Z,32.29
2022-08-25T18:55:09.502Z,32.44
2022-08-25T18:56:41.317Z,32.76
2022-08-25T18:58:14.436Z,32.68
2022-08-25T18:59:46.258Z,33.05
2022-08-25T19:01:19.106Z,32.86
2022-08-25T19:02:51.997Z,33.11
2022-08-25T19:04:31.393Z,33.08
2022-08-25T19:06:03.843Z,33.71
2022-08-25T19:07:36.223Z,33.54
2022-08-25T19:09:12.169Z,37.59
2022-08-25T19:10:45.150Z,39.38
2022-08-25T19:12:22.451Z,39.89
2022-08-25T19:13:55.162Z,41.06
2022-08-25T19:15:27.037Z,39.28
2022-08-25T19:16:59.439Z,38.70
2022-08-25T19:18:33.265Z,40.84
2022-08-25T19:20:11.171Z,36.85
2022-08-25T19:21:43.560Z,39.58
2022-08-25T19:23:15.503Z,40.10
2022-08-25T19:24:47.434Z,40.09
2022-08-25T19:26:19.340Z,39.86
2022-08-25T19:27:51.445Z,39.43
2022-08-25T19:29:23.700Z,39.86
2022-08-25T19:30:55.507Z,39.62
2022-08-25T19:32:27.871Z,40.17
2022-08-25T19:33:59.546Z,40.11
2022-08-25T19:35:31.989Z,39.34
2022-08-25T19:37:04.604Z,39.77
2022-08-25T19:38:37.037Z,39.42
2022-08-25T19:40:09.455Z,39.41
2022-08-25T19:41:43.468Z,40.43
2022-08-25T19:43:15.448Z,40.98
2022-08-25T19:44:49.342Z,40.65
2022-08-25T19:46:21.710Z,41.39
2022-08-25T19:47:53.614Z,40.41
2022-08-25T19:49:27.432Z,41.19
2022-08-25T19:51:03.769Z,40.20
2022-08-25T19:52:36.452Z,40.89
2022-08-25T19:54:09.276Z,40.74
2022-08-25T19:55:42.949Z,41.27
2022-08-25T19:57:27.907Z,41.06
2022-08-25T19:59:07.154Z,40.47
2022-08-25T20:00:40.468Z,41.38
2022-08-25T20:02:15.139Z,41.55
2022-08-25T20:03:47.550Z,41.03
2022-08-25T20:05:23.588Z,40.72
2022-08-25T20:06:56.014Z,40.10
2022-08-25T20:08:29.877Z,40.69
2022-08-25T20:10:02.444Z,40.93
2022-08-25T20:11:35.538Z,41.39
2022-08-25T20:13:07.631Z,41.07
2022-08-25T20:14:39.630Z,40.89
2022-08-25T20:16:11.447Z,40.77
2022-08-25T20:17:43.495Z,41.05
2022-08-25T20:19:16.903Z,40.89
2022-08-25T20:20:49.073Z,41.74
2022-08-25T20:22:25.896Z,41.28
2022-08-25T20:24:17.191Z,41.34